Greenville, Alabama
Current Conditions -  °F | °C
As of 9:56 AM on Thursday 27 Nov 2014 (Local Time) from KPRN Reporting Station
Clear Clear  
Wind Chill: 50°   Ceiling: Unl
Heat Index: 50°   Visibility: 10mi
Dew Point: 30°   Wind: 14mph
Humidity: 46%   Direction: 350°N
Pressure: 30.36"   Gusts: 17mph
Location:  31.83°N, 86.63°W
Report Text: KPRN 271556Z AUTO 35012G15KT 10SM CLR 10/M01 A3036 RMK AO2 SLP280 T01001011
Loading
Personal Weather Stations






























Interactive Weather Map New forecast layout! Learn more

10-Day Weather Forecast

Advertisements
Track Severe Weather on mobile